Time;durP1;ratioP1;P1;durP2;ratioP2;P2;SDS_P1;SDS_P2;PMS_P1;PMS_P2;Temp;Humidity;BMP_temperature;BMP_pressure;BME280_temperature;BME280_humidity;BME280_pressure;Samples;Min_cycle;Max_cycle;Signal;HPM_P1;HPM_P2
2022/09/16 00:00:24;;;;;;;7.85;2.70;;;12.10;99.90;;;;;;5025415;28;20032;-64
2022/09/16 00:02:53;;;;;;;8.50;2.53;;;12.10;99.90;;;;;;5033526;28;20051;-64
2022/09/16 00:05:19;;;;;;;8.57;1.92;;;12.10;99.90;;;;;;5027933;28;20025;-64
2022/09/16 00:07:45;;;;;;;8.02;2.25;;;12.10;99.90;;;;;;5029113;28;20068;-64
2022/09/16 00:10:11;;;;;;;11.30;2.63;;;12.00;99.90;;;;;;5026386;28;20056;-64
2022/09/16 00:12:37;;;;;;;8.70;2.30;;;12.00;99.90;;;;;;5021091;28;20080;-64
2022/09/16 00:15:03;;;;;;;10.13;2.90;;;12.00;99.90;;;;;;5030842;28;20025;-64
2022/09/16 00:17:29;;;;;;;10.50;2.58;;;12.20;99.90;;;;;;5027355;28;20437;-64
2022/09/16 00:19:56;;;;;;;9.63;3.28;;;12.10;99.90;;;;;;5024789;28;20534;-64
2022/09/16 00:22:22;;;;;;;10.80;2.50;;;12.10;99.90;;;;;;5030100;28;20080;-64
2022/09/16 00:24:48;;;;;;;8.40;3.00;;;12.10;99.90;;;;;;5023491;28;20060;-64
2022/09/16 00:27:14;;;;;;;6.80;2.00;;;12.20;99.90;;;;;;5029924;28;20028;-64
2022/09/16 00:29:39;;;;;;;10.95;2.50;;;12.20;99.90;;;;;;5044856;28;20423;-64
2022/09/16 00:32:05;;;;;;;8.50;1.90;;;12.10;99.90;;;;;;5034027;28;20104;-64
2022/09/16 00:34:31;;;;;;;8.57;2.88;;;12.20;99.90;;;;;;5030013;28;20078;-64
2022/09/16 00:36:56;;;;;;;6.65;2.10;;;12.20;99.90;;;;;;5029888;28;20055;-64
2022/09/16 00:39:22;;;;;;;8.68;2.60;;;12.30;99.90;;;;;;5028142;28;20317;-64
2022/09/16 00:41:48;;;;;;;7.50;2.10;;;12.30;99.90;;;;;;5020399;28;20488;-64
2022/09/16 00:44:51;;;;;;;10.60;2.50;;;12.20;99.90;;;;;;5022671;28;20036;-64
2022/09/16 00:47:31;;;;;;;10.05;2.15;;;12.20;99.90;;;;;;5029251;28;20490;-64
2022/09/16 00:50:02;;;;;;;10.20;2.38;;;12.20;99.90;;;;;;5031802;28;20061;-64
2022/09/16 00:52:28;;;;;;;11.80;2.13;;;12.30;99.90;;;;;;5030492;28;20057;-64
2022/09/16 00:54:54;;;;;;;7.82;2.50;;;12.20;99.90;;;;;;5026561;28;20053;-64
2022/09/16 00:57:20;;;;;;;9.35;2.13;;;12.30;99.90;;;;;;5050015;28;20049;-64
2022/09/16 00:59:51;;;;;;;9.32;2.08;;;12.20;99.90;;;;;;5027504;28;20083;-64
2022/09/16 01:02:19;;;;;;;12.32;2.83;;;12.20;99.90;;;;;;5024424;28;20029;-64
2022/09/16 01:04:52;;;;;;;12.40;2.55;;;12.20;99.90;;;;;;5028197;28;20029;-64
2022/09/16 01:07:25;;;;;;;9.07;2.50;;;12.20;99.90;;;;;;5030459;28;20044;-64
2022/09/16 01:09:51;;;;;;;9.35;2.50;;;12.10;99.90;;;;;;5025361;28;20036;-64
2022/09/16 01:12:17;;;;;;;8.90;2.40;;;12.10;99.90;;;;;;5023644;28;20480;-65
2022/09/16 01:14:55;;;;;;;8.15;2.30;;;12.00;99.90;;;;;;5031462;28;20112;-64
2022/09/16 01:18:03;;;;;;;7.65;2.47;;;12.00;99.90;;;;;;5030121;28;20049;-64
2022/09/16 01:20:47;;;;;;;9.27;2.88;;;12.00;99.90;;;;;;5034512;28;20111;-64
2022/09/16 01:23:22;;;;;;;10.43;2.70;;;12.10;99.90;;;;;;5025237;28;20029;-64
2022/09/16 01:25:47;;;;;;;8.23;2.78;;;12.10;99.90;;;;;;5041362;28;20053;-64
2022/09/16 01:28:34;;;;;;;9.73;2.80;;;12.10;99.90;;;;;;5026509;28;20029;-64
2022/09/16 01:30:59;;;;;;;9.38;2.72;;;12.10;99.90;;;;;;5022064;28;20071;-64
2022/09/16 01:33:40;;;;;;;10.18;2.65;;;12.10;99.90;;;;;;5028485;28;20025;-64
2022/09/16 01:36:10;;;;;;;10.35;2.50;;;12.10;99.90;;;;;;5022780;28;20033;-64
2022/09/16 01:38:36;;;;;;;;;;;12.10;99.90;;;;;;5028136;28;20620;-64
2022/09/16 01:41:02;;;;;;;;;;;12.10;99.90;;;;;;5040534;28;19940;-64
2022/09/16 01:43:27;;;;;;;;;;;12.10;99.90;;;;;;5022390;28;19909;-64
2022/09/16 01:45:54;;;;;;;;;;;12.10;99.90;;;;;;5022871;28;19963;-64
2022/09/16 01:48:49;;;;;;;;;;;12.10;99.90;;;;;;5026009;28;19913;-64
2022/09/16 01:51:31;;;;;;;;;;;12.00;99.90;;;;;;5023559;28;19917;-64
2022/09/16 01:54:12;;;;;;;;;;;12.10;99.90;;;;;;5031326;28;19909;-64
2022/09/16 01:56:48;;;;;;;;;;;12.10;99.90;;;;;;5028104;28;19915;-64
2022/09/16 01:59:19;;;;;;;;;;;12.10;99.90;;;;;;5029667;28;19921;-64
2022/09/16 02:01:49;;;;;;;;;;;12.10;99.90;;;;;;5031697;28;19936;-64
2022/09/16 02:04:18;;;;;;;;;;;12.10;99.90;;;;;;5029458;28;20311;-65
2022/09/16 02:06:45;;;;;;;;;;;12.10;99.90;;;;;;5026435;28;20047;-64
2022/09/16 02:09:17;;;;;;;;;;;12.10;99.90;;;;;;5029440;28;20004;-64
2022/09/16 02:11:43;;;;;;;;;;;12.10;99.90;;;;;;5024455;28;19944;-64
2022/09/16 02:14:12;;;;;;;;;;;12.20;99.90;;;;;;5033022;28;19915;-64
2022/09/16 02:16:40;;;;;;;;;;;12.20;99.90;;;;;;5033868;28;20028;-64
2022/09/16 02:19:10;;;;;;;;;;;12.20;99.90;;;;;;5036593;28;20265;-64
2022/09/16 02:21:38;;;;;;;;;;;12.10;99.90;;;;;;5028375;28;20024;-64
2022/09/16 02:24:05;;;;;;;;;;;12.20;99.90;;;;;;5030297;28;19913;-64
2022/09/16 02:26:34;;;;;;;;;;;12.30;99.90;;;;;;5029834;28;20355;-64
2022/09/16 02:29:00;;;;;;;;;;;12.20;99.90;;;;;;5035508;28;20398;-64
2022/09/16 02:31:29;;;;;;;;;;;12.30;99.90;;;;;;5029547;28;19940;-64
2022/09/16 02:34:02;;;;;;;;;;;12.20;99.90;;;;;;5031883;28;19915;-64
2022/09/16 02:36:28;;;;;;;;;;;12.20;99.90;;;;;;5029860;28;19919;-64
2022/09/16 02:39:07;;;;;;;;;;;12.20;99.90;;;;;;5033284;28;19964;-64
2022/09/16 02:41:33;;;;;;;;;;;12.10;99.90;;;;;;5025257;28;20091;-64
2022/09/16 02:43:59;;;;;;;;;;;12.10;99.90;;;;;;5030111;28;20000;-64
2022/09/16 02:46:28;;;;;;;;;;;12.10;99.90;;;;;;5025605;28;20437;-64
2022/09/16 02:48:53;;;;;;;;;;;12.20;99.90;;;;;;5027586;28;19975;-64
2022/09/16 02:51:19;;;;;;;;;;;12.20;99.90;;;;;;5029401;28;19913;-65
2022/09/16 02:53:46;;;;;;;;;;;12.10;99.90;;;;;;5028888;28;19913;-64
2022/09/16 02:56:16;;;;;;;;;;;12.20;99.90;;;;;;5029385;28;19952;-64
2022/09/16 02:58:41;;;;;;;;;;;12.20;99.90;;;;;;5023085;28;19964;-64
2022/09/16 03:01:10;;;;;;;;;;;12.20;99.90;;;;;;5030332;28;19912;-64
2022/09/16 03:03:35;;;;;;;;;;;12.20;99.90;;;;;;5030127;28;20362;-64
2022/09/16 03:06:15;;;;;;;;;;;12.20;99.90;;;;;;5022095;28;20177;-64
2022/09/16 03:08:41;;;;;;;;;;;12.20;99.90;;;;;;5026972;28;19913;-64
2022/09/16 03:11:22;;;;;;;;;;;12.20;99.90;;;;;;5027673;28;20424;-64
2022/09/16 03:13:57;;;;;;;;;;;12.20;99.90;;;;;;5026225;28;20388;-64
2022/09/16 03:16:29;;;;;;;;;;;12.20;99.90;;;;;;5030721;28;19905;-64
2022/09/16 03:19:07;;;;;;;;;;;12.10;99.90;;;;;;5018073;28;20312;-64
2022/09/16 03:21:40;;;;;;;;;;;12.00;99.90;;;;;;5028496;28;19924;-64
2022/09/16 03:24:11;;;;;;;;;;;12.10;99.90;;;;;;5030933;28;19955;-64
2022/09/16 03:26:49;;;;;;;;;;;12.00;99.90;;;;;;5024689;28;19916;-64
2022/09/16 03:29:23;;;;;;;;;;;12.00;99.90;;;;;;5029743;28;19908;-64
2022/09/16 03:31:59;;;;;;;;;;;12.00;99.90;;;;;;5022327;28;19960;-64
2022/09/16 03:34:28;;;;;;;;;;;12.00;99.90;;;;;;5029264;28;20335;-64
2022/09/16 03:36:57;;;;;;;;;;;12.00;99.90;;;;;;5029848;28;20390;-64
2022/09/16 03:39:23;;;;;;;;;;;12.00;99.90;;;;;;5027007;28;20361;-64
2022/09/16 03:41:49;;;;;;;;;;;12.00;99.90;;;;;;5025605;28;19955;-64
2022/09/16 03:44:15;;;;;;;;;;;11.90;99.90;;;;;;5028433;28;20016;-64
2022/09/16 03:46:41;;;;;;;;;;;11.90;99.90;;;;;;5030387;28;20005;-64
2022/09/16 03:49:06;;;;;;;;;;;11.90;99.90;;;;;;5020477;28;19916;-64
2022/09/16 03:51:32;;;;;;;;;;;11.80;99.90;;;;;;5027542;28;19956;-64
2022/09/16 03:53:57;;;;;;;;;;;11.90;99.90;;;;;;5025883;28;20445;-64
2022/09/16 03:56:23;;;;;;;;;;;11.90;99.90;;;;;;5032632;28;19955;-64
2022/09/16 03:58:49;;;;;;;;;;;11.90;99.90;;;;;;5031646;28;19909;-64
2022/09/16 04:01:14;;;;;;;;;;;11.90;99.90;;;;;;5027055;28;19913;-64
2022/09/16 04:03:40;;;;;;;;;;;11.90;99.90;;;;;;5026161;28;19916;-64
2022/09/16 04:06:06;;;;;;;;;;;11.90;99.90;;;;;;5024588;28;20007;-64
2022/09/16 04:08:31;;;;;;;;;;;11.80;99.90;;;;;;5030856;28;19954;-64
2022/09/16 04:11:01;;;;;;;;;;;11.90;99.90;;;;;;5026819;28;20388;-64
2022/09/16 04:13:31;;;;;;;;;;;11.80;99.90;;;;;;5040632;28;19951;-64
2022/09/16 04:15:56;;;;;;;;;;;11.80;99.90;;;;;;5031963;28;20365;-64
2022/09/16 04:18:22;;;;;;;;;;;11.70;99.90;;;;;;5031076;28;19930;-65
2022/09/16 04:20:47;;;;;;;;;;;11.80;99.90;;;;;;5029028;28;20023;-64
2022/09/16 04:23:13;;;;;;;;;;;11.80;99.90;;;;;;5025065;28;19917;-64
2022/09/16 04:25:39;;;;;;;;;;;11.70;99.90;;;;;;5026358;28;20087;-64
2022/09/16 04:28:05;;;;;;;;;;;11.70;99.90;;;;;;5034829;28;20253;-65
2022/09/16 04:30:31;;;;;;;;;;;11.80;99.90;;;;;;5029254;28;19929;-65
2022/09/16 04:32:56;;;;;;;;;;;11.80;99.90;;;;;;5031694;28;19940;-64
2022/09/16 04:35:23;;;;;;;;;;;11.80;99.90;;;;;;5036166;28;19919;-64
2022/09/16 04:37:50;;;;;;;;;;;11.90;99.90;;;;;;5021657;28;19931;-64
2022/09/16 04:40:15;;;;;;;;;;;12.00;99.90;;;;;;5029700;28;19909;-64
2022/09/16 04:42:46;;;;;;;;;;;12.00;99.90;;;;;;5024109;28;19913;-64
2022/09/16 04:45:12;;;;;;;;;;;11.90;99.90;;;;;;5029888;28;20350;-63
2022/09/16 04:47:37;;;;;;;;;;;11.80;99.90;;;;;;5025327;28;19909;-64
2022/09/16 04:50:03;;;;;;;;;;;11.70;99.90;;;;;;5028727;28;19917;-63
2022/09/16 04:52:29;;;;;;;;;;;11.70;99.90;;;;;;5028880;28;19917;-64
2022/09/16 04:54:55;;;;;;;;;;;11.60;99.90;;;;;;5027682;28;19919;-63
2022/09/16 04:57:20;;;;;;;;;;;11.60;99.90;;;;;;5027709;28;19913;-63
2022/09/16 04:59:46;;;;;;;;;;;11.60;99.90;;;;;;5027290;28;20339;-63
2022/09/16 05:02:11;;;;;;;;;;;11.60;99.90;;;;;;5030585;28;19921;-64
2022/09/16 05:04:37;;;;;;;;;;;11.60;99.90;;;;;;5030179;28;19909;-64
2022/09/16 05:07:02;;;;;;;;;;;11.60;99.90;;;;;;5034379;28;20155;-64
2022/09/16 05:09:28;;;;;;;;;;;11.50;99.90;;;;;;5026807;28;20468;-63
2022/09/16 05:11:53;;;;;;;;;;;11.50;99.90;;;;;;5021901;28;20365;-63
2022/09/16 05:14:19;;;;;;;;;;;11.50;99.90;;;;;;5024045;28;20007;-64
2022/09/16 05:16:44;;;;;;;;;;;11.50;99.90;;;;;;5025243;28;20326;-63
2022/09/16 05:19:10;;;;;;;;;;;11.50;99.90;;;;;;5031352;28;19952;-63
2022/09/16 05:21:37;;;;;;;;;;;11.40;99.90;;;;;;5022375;28;20103;-63
2022/09/16 05:24:07;;;;;;;;;;;11.40;99.90;;;;;;5026406;28;20008;-63
2022/09/16 05:26:34;;;;;;;;;;;11.50;99.90;;;;;;5026160;28;19913;-62
2022/09/16 05:29:01;;;;;;;;;;;11.50;99.90;;;;;;5029447;28;20400;-63
2022/09/16 05:31:28;;;;;;;;;;;11.50;99.90;;;;;;5027953;28;20319;-64
2022/09/16 05:33:57;;;;;;;;;;;11.60;99.90;;;;;;5027510;28;20284;-63
2022/09/16 05:36:23;;;;;;;;;;;11.60;99.90;;;;;;5028443;28;19974;-63
2022/09/16 05:38:49;;;;;;;;;;;11.60;99.90;;;;;;5029862;28;19909;-64
2022/09/16 05:41:15;;;;;;;;;;;11.60;99.90;;;;;;5032011;28;20359;-65
2022/09/16 05:43:41;;;;;;;;;;;11.60;99.90;;;;;;5031476;28;19906;-64
2022/09/16 05:46:06;;;;;;;;;;;11.70;99.90;;;;;;5037203;28;19995;-66
2022/09/16 05:48:32;;;;;;;;;;;11.70;99.90;;;;;;5034709;28;19952;-65
2022/09/16 05:50:59;;;;;;;;;;;11.60;99.90;;;;;;5025568;28;19913;-63
2022/09/16 05:53:25;;;;;;;;;;;11.70;99.90;;;;;;5029056;28;19917;-64
2022/09/16 05:55:59;;;;;;;;;;;11.70;99.90;;;;;;5036639;28;20392;-64
2022/09/16 05:58:25;;;;;;;;;;;11.70;99.90;;;;;;5032311;28;19994;-64
2022/09/16 06:00:56;;;;;;;;;;;11.80;99.90;;;;;;5029727;28;20047;-63
2022/09/16 06:03:22;;;;;;;;;;;11.70;99.90;;;;;;5022902;28;20278;-63
2022/09/16 06:05:47;;;;;;;;;;;11.80;99.90;;;;;;5028635;28;19916;-63
2022/09/16 06:08:13;;;;;;;;;;;11.70;99.90;;;;;;5025111;28;19917;-63
2022/09/16 06:10:39;;;;;;;;;;;11.70;99.90;;;;;;5020141;28;20292;-63
2022/09/16 06:13:05;;;;;;;;;;;11.70;99.90;;;;;;5023908;28;20376;-64
2022/09/16 06:15:31;;;;;;;;;;;11.70;99.90;;;;;;5026417;28;19932;-63
2022/09/16 06:17:57;;;;;;;;;;;11.70;99.90;;;;;;5025040;28;20332;-63
2022/09/16 06:20:22;;;;;;;;;;;11.80;99.90;;;;;;5017708;28;19912;-63
2022/09/16 06:22:48;;;;;;;;;;;12.00;99.90;;;;;;5024455;28;20003;-64
2022/09/16 06:25:13;;;;;;;;;;;12.10;99.90;;;;;;5029283;28;19909;-63
2022/09/16 06:27:39;;;;;;;;;;;12.30;99.90;;;;;;5025394;28;19913;-64
2022/09/16 06:30:05;;;;;;;;;;;12.40;99.90;;;;;;5025564;28;19920;-63
2022/09/16 06:32:30;;;;;;;;;;;12.60;99.90;;;;;;5027149;28;19915;-64
2022/09/16 06:34:56;;;;;;;;;;;12.50;99.90;;;;;;5022605;28;19963;-64
2022/09/16 06:37:21;;;;;;;;;;;12.60;99.90;;;;;;5025381;28;20188;-63
2022/09/16 06:39:47;;;;;;;;;;;12.70;99.90;;;;;;5024882;28;20269;-63
2022/09/16 06:42:12;;;;;;;;;;;12.60;99.90;;;;;;5024675;28;20575;-63
2022/09/16 06:44:38;;;;;;;;;;;12.70;99.90;;;;;;5025819;28;19909;-64
2022/09/16 06:47:04;;;;;;;;;;;12.70;99.90;;;;;;5026356;28;20289;-63
2022/09/16 06:49:29;;;;;;;;;;;12.70;99.90;;;;;;5025732;28;19984;-64
2022/09/16 06:51:55;;;;;;;;;;;12.80;99.90;;;;;;5025811;28;19963;-64
2022/09/16 06:54:20;;;;;;;;;;;12.90;99.90;;;;;;5026670;28;19935;-63
2022/09/16 06:56:46;;;;;;;;;;;12.90;99.90;;;;;;5022149;28;19920;-64
2022/09/16 06:59:13;;;;;;;;;;;12.90;99.90;;;;;;5025668;28;19909;-64
2022/09/16 07:01:39;;;;;;;;;;;12.90;99.90;;;;;;5026850;28;20203;-64
2022/09/16 07:04:06;;;;;;;;;;;12.90;99.90;;;;;;5019199;28;19909;-63
2022/09/16 07:06:33;;;;;;;;;;;12.90;99.90;;;;;;5021668;28;19928;-63
2022/09/16 07:08:58;;;;;;;;;;;13.00;99.90;;;;;;5026000;28;20242;-64
2022/09/16 07:11:24;;;;;;;;;;;13.00;99.90;;;;;;5023374;28;19908;-64
2022/09/16 07:13:50;;;;;;;;;;;13.00;99.90;;;;;;5019493;28;19909;-65
2022/09/16 07:16:17;;;;;;;;;;;13.20;99.90;;;;;;5020778;28;20016;-64
2022/09/16 07:18:42;;;;;;;;;;;13.50;99.90;;;;;;5025160;28;19916;-64
2022/09/16 07:21:10;;;;;;;;;;;13.60;99.90;;;;;;5025098;28;20363;-64
2022/09/16 07:23:37;;;;;;;;;;;13.50;99.90;;;;;;5021534;28;19983;-64
2022/09/16 07:26:04;;;;;;;;;;;13.30;99.90;;;;;;5025797;28;19967;-64
2022/09/16 07:28:30;;;;;;;;;;;13.10;99.90;;;;;;5028817;28;20377;-64
2022/09/16 07:30:56;;;;;;;;;;;13.00;99.90;;;;;;5024930;28;19913;-64
2022/09/16 07:33:21;;;;;;;;;;;13.00;99.90;;;;;;5022677;28;19915;-64
2022/09/16 07:35:47;;;;;;;;;;;13.10;99.90;;;;;;5021258;28;19924;-64
2022/09/16 07:38:12;;;;;;;;;;;13.10;99.90;;;;;;5017743;28;20023;-64
2022/09/16 07:40:39;;;;;;;;;;;13.00;99.90;;;;;;5020861;28;19944;-64
2022/09/16 07:43:05;;;;;;;;;;;13.00;99.90;;;;;;5023410;28;19963;-64
2022/09/16 07:45:31;;;;;;;;;;;13.10;99.90;;;;;;5023364;28;19909;-64
2022/09/16 07:47:56;;;;;;;;;;;12.90;99.90;;;;;;5020901;28;19912;-65
2022/09/16 07:50:22;;;;;;;;;;;12.90;99.90;;;;;;5020657;28;20264;-64
2022/09/16 07:52:47;;;;;;;;;;;12.90;99.90;;;;;;5016855;28;20007;-64
2022/09/16 07:55:15;;;;;;;;;;;13.00;99.90;;;;;;5020446;28;19932;-65
2022/09/16 07:57:41;;;;;;;;;;;13.10;99.90;;;;;;5020017;28;19913;-63
2022/09/16 08:00:07;;;;;;;;;;;13.30;99.90;;;;;;5022856;28;20436;-64
2022/09/16 08:02:33;;;;;;;;;;;13.50;99.90;;;;;;5019368;28;19928;-64
2022/09/16 08:04:58;;;;;;;;;;;13.70;99.90;;;;;;5021535;28;19909;-64
2022/09/16 08:07:24;;;;;;;;;;;13.60;99.90;;;;;;5021812;28;19909;-64
2022/09/16 08:09:49;;;;;;;;;;;13.60;99.90;;;;;;5021163;28;19928;-64
2022/09/16 08:12:15;;;;;;;;;;;13.70;99.90;;;;;;5019132;28;20269;-65
2022/09/16 08:14:40;;;;;;;;;;;13.80;99.90;;;;;;5019315;28;20363;-64
2022/09/16 08:17:06;;;;;;;;;;;13.70;99.90;;;;;;5023983;28;19915;-64
2022/09/16 08:19:32;;;;;;;;;;;13.90;99.90;;;;;;5019526;28;20020;-64
2022/09/16 08:21:57;;;;;;;;;;;14.10;99.90;;;;;;5014544;28;20007;-64
2022/09/16 08:24:23;;;;;;;;;;;14.00;99.90;;;;;;5023322;28;20332;-64
2022/09/16 08:26:48;;;;;;;;;;;14.40;99.90;;;;;;5022561;28;19920;-64
2022/09/16 08:29:14;;;;;;;;;;;14.10;99.90;;;;;;5017743;28;19913;-64
2022/09/16 08:31:39;;;;;;;;;;;14.60;99.90;;;;;;5020234;28;19928;-64
2022/09/16 08:34:05;;;;;;;;;;;15.00;99.90;;;;;;5032446;28;19912;-64
2022/09/16 08:36:32;;;;;;;;;;;15.70;99.90;;;;;;5018181;28;20035;-65
2022/09/16 08:38:58;;;;;;;;;;;15.90;99.90;;;;;;5015011;28;20435;-64
2022/09/16 08:41:38;;;;;;;;;;;15.40;99.90;;;;;;5020046;28;19987;-64
2022/09/16 08:44:13;;;;;;;;;;;15.90;99.90;;;;;;5020906;28;20372;-65
2022/09/16 08:46:50;;;;;;;;;;;16.20;99.90;;;;;;5018913;28;19932;-64
2022/09/16 08:49:18;;;;;;;;;;;16.10;99.90;;;;;;5020929;28;20321;-64
2022/09/16 08:51:44;;;;;;;;;;;15.70;99.90;;;;;;5017063;28;19922;-65
2022/09/16 08:54:11;;;;;;;;;;;15.40;99.90;;;;;;5019166;28;20400;-64
2022/09/16 08:56:48;;;;;;;;;;;15.90;99.90;;;;;;5026397;28;19912;-64
2022/09/16 08:59:17;;;;;;;;;;;16.00;99.90;;;;;;5025470;28;19924;-64
2022/09/16 09:01:56;;;;;;;;;;;15.70;99.90;;;;;;5022917;28;19909;-64
2022/09/16 09:04:22;;;;;;;;;;;15.10;99.90;;;;;;5024778;28;20217;-64
2022/09/16 09:07:06;;;;;;;;;;;14.60;99.90;;;;;;5019052;28;20258;-64
2022/09/16 09:09:38;;;;;;;;;;;14.40;99.90;;;;;;5024314;28;19936;-64
2022/09/16 09:12:13;;;;;;;;;;;14.50;99.90;;;;;;5011500;28;19917;-64
2022/09/16 09:14:41;;;;;;;;;;;15.20;99.90;;;;;;5020680;28;19913;-64
2022/09/16 09:17:13;;;;;;;;;;;16.30;99.90;;;;;;5018809;28;19912;-64
2022/09/16 09:19:39;;;;;;;;;;;17.00;99.90;;;;;;5016349;28;19919;-64
2022/09/16 09:22:04;;;;;;;;;;;17.70;99.90;;;;;;5012882;28;19925;-64
2022/09/16 09:24:35;;;;;;;;;;;17.00;99.90;;;;;;5020770;28;20011;-64
2022/09/16 09:27:13;;;;;;;;;;;15.80;99.90;;;;;;5017096;28;19986;-64
2022/09/16 09:29:41;;;;;;;;;;;15.00;99.90;;;;;;5023239;28;19952;-64
2022/09/16 09:32:19;;;;;;;;;;;14.80;99.90;;;;;;5022311;28;20376;-64
2022/09/16 09:34:44;;;;;;;;;;;14.60;99.90;;;;;;5020308;28;19913;-64
2022/09/16 09:37:19;;;;;;;;;;;14.70;99.90;;;;;;5019279;28;19913;-64
2022/09/16 09:40:06;;;;;;;;;;;15.30;99.90;;;;;;5023088;28;19913;-64
2022/09/16 09:42:37;;;;;;;;;;;15.70;99.90;;;;;;5009000;28;19983;-64
2022/09/16 09:45:10;;;;;;;;;;;15.90;99.90;;;;;;5024709;28;19905;-64
2022/09/16 09:47:40;;;;;;;;;;;15.90;99.90;;;;;;5021107;28;19983;-64
2022/09/16 09:50:18;;;;;;;;;;;15.30;99.90;;;;;;5021266;28;19917;-64
2022/09/16 09:52:51;;;;;;;;;;;14.70;99.90;;;;;;5023303;28;19920;-64
2022/09/16 09:55:18;;;;;;;;;;;14.70;99.90;;;;;;5019639;28;19916;-64
2022/09/16 09:58:02;;;;;;;;;;;14.80;99.90;;;;;;5021824;28;19924;-64
2022/09/16 10:00:28;;;;;;;;;;;14.60;99.90;;;;;;5020811;28;21348;-64
2022/09/16 10:03:01;;;;;;;;;;;15.00;99.90;;;;;;5023026;28;20180;-64
2022/09/16 10:05:27;;;;;;;;;;;15.80;99.90;;;;;;5022694;28;19920;-64
2022/09/16 10:07:58;;;;;;;;;;;15.50;99.90;;;;;;5021117;28;20304;-64
2022/09/16 10:10:25;;;;;;;;;;;15.00;99.90;;;;;;5022880;28;19913;-64
2022/09/16 10:12:50;;;;;;;;;;;15.40;99.90;;;;;;5012610;28;19975;-64
2022/09/16 10:15:20;;;;;;;;;;;17.10;99.90;;;;;;5023048;28;19912;-65
2022/09/16 10:17:50;;;;;;;;;;;18.20;99.90;;;;;;5017750;28;20401;-64
2022/09/16 10:20:30;;;;;;;;;;;18.90;99.90;;;;;;5026494;28;20310;-64
2022/09/16 10:23:00;;;;;;;;;;;20.00;99.90;;;;;;5040165;28;20002;-64
2022/09/16 10:25:26;;;;;;;;;;;20.80;99.90;;;;;;5026276;28;20002;-64
2022/09/16 10:28:03;;;;;;;;;;;19.40;99.90;;;;;;5021949;28;19917;-64
2022/09/16 10:30:40;;;;;;;;;;;18.40;99.90;;;;;;5026658;28;20332;-64
2022/09/16 10:33:11;;;;;;;;;;;17.80;99.90;;;;;;5024841;28;19992;-64
2022/09/16 10:35:39;;;;;;;;;;;17.70;99.90;;;;;;5024922;28;19924;-64
2022/09/16 10:38:15;;;;;;;;;;;16.90;99.90;;;;;;5024967;28;20364;-64
2022/09/16 10:40:50;;;;;;;;;;;16.80;99.90;;;;;;5019876;28;20129;-64
2022/09/16 10:43:15;;;;;;;;;;;17.50;99.90;;;;;;5021779;28;20001;-64
2022/09/16 10:45:45;;;;;;;;;;;18.50;99.90;;;;;;5024637;28;19950;-63
2022/09/16 10:48:12;;;;;;;;;;;18.00;99.90;;;;;;5025296;28;19960;-64
2022/09/16 10:50:38;;;;;;;;;;;17.70;99.90;;;;;;5023611;28;19936;-64
2022/09/16 10:53:19;;;;;;;;;;;17.10;99.90;;;;;;5019221;28;19956;-64
2022/09/16 10:55:54;;;;;;;;;;;16.70;99.90;;;;;;5021015;28;20212;-64
2022/09/16 10:58:20;;;;;;;;;;;16.30;99.90;;;;;;5016894;28;20313;-64
2022/09/16 11:01:04;;;;;;;;;;;16.60;99.90;;;;;;5024672;28;20148;-62
2022/09/16 11:03:32;;;;;;;;;;;16.40;99.90;;;;;;5026065;28;20062;-63
2022/09/16 11:06:06;;;;;;;;;;;15.80;99.90;;;;;;5027337;28;19994;-64
2022/09/16 11:08:34;;;;;;;;;;;15.20;99.90;;;;;;5030109;28;20423;-62
2022/09/16 11:11:32;;;;;;;;;;;14.60;99.90;;;;;;5024538;28;19936;-62
2022/09/16 11:14:36;;;;;;;;;;;13.60;99.90;;;;;;5007134;28;20225;-63
2022/09/16 11:17:17;;;;;;;;;;;13.10;99.90;;;;;;5017638;28;19917;-63
2022/09/16 11:20:01;;;;;;;;;;;12.90;99.90;;;;;;5016102;28;19913;-62
2022/09/16 11:22:38;;;;;;;;;;;12.90;99.90;;;;;;5016918;28;19971;-63
2022/09/16 11:25:16;;;;;;;;;;;13.20;99.90;;;;;;5013947;28;19975;-62
2022/09/16 11:27:49;;;;;;;;;;;13.50;99.90;;;;;;5023254;28;19916;-62
2022/09/16 11:30:19;;;;;;;;;;;14.10;99.90;;;;;;5021384;28;20113;-63
2022/09/16 11:32:51;;;;;;;;;;;14.50;99.90;;;;;;5015939;28;19917;-62
2022/09/16 11:35:25;;;;;;;;;;;14.60;99.90;;;;;;5013776;28;19913;-63
2022/09/16 11:38:15;;;;;;;;;;;14.50;99.90;;;;;;5004609;28;19999;-62
2022/09/16 11:40:43;;;;;;;;;;;14.70;99.90;;;;;;5013877;28;19962;-63
2022/09/16 11:43:28;;;;;;;;;;;16.40;99.90;;;;;;5010145;28;20373;-62
2022/09/16 11:45:56;;;;;;;;;;;17.90;99.90;;;;;;5014571;28;19976;-63
2022/09/16 11:48:41;;;;;;;;;;;20.50;99.90;;;;;;4998556;28;19921;-63
2022/09/16 11:51:25;;;;;;;;;;;20.60;99.90;;;;;;5002000;28;20011;-63
2022/09/16 11:54:13;;;;;;;;;;;20.80;99.90;;;;;;5005203;28;19951;-63
2022/09/16 11:56:42;;;;;;;;;;;21.70;99.90;;;;;;5003318;28;19917;-63
2022/09/16 11:59:12;;;;;;;;;;;21.80;99.90;;;;;;5000991;28;19959;-63
2022/09/16 12:01:37;;;;;;;;;;;22.00;99.90;;;;;;5002233;28;20000;-63
2022/09/16 12:04:09;;;;;;;;;;;21.10;99.90;;;;;;5002174;28;19992;-63
2022/09/16 12:06:39;;;;;;;;;;;20.00;99.90;;;;;;5004569;28;19987;-63
2022/09/16 12:09:12;;;;;;;;;;;19.70;99.90;;;;;;4999013;28;19921;-63
2022/09/16 12:11:50;;;;;;;;;;;19.10;99.90;;;;;;5007921;28;19921;-63
2022/09/16 12:14:22;;;;;;;;;;;17.90;99.90;;;;;;4999098;28;19913;-62
2022/09/16 12:16:57;;;;;;;;;;;16.80;99.90;;;;;;4998433;28;19914;-63
2022/09/16 12:19:26;;;;;;;;;;;16.30;99.90;;;;;;5002883;28;19927;-64
2022/09/16 12:21:52;;;;;;;;;;;16.00;99.90;;;;;;5013628;28;19930;-63
2022/09/16 12:24:21;;;;;;;;;;;14.90;99.90;;;;;;5021966;28;19924;-62
2022/09/16 12:27:05;;;;;;;;;;;14.00;99.90;;;;;;5022532;28;19909;-62
2022/09/16 12:29:43;;;;;;;;;;;13.60;99.90;;;;;;5022390;28;19909;-62
2022/09/16 12:32:13;;;;;;;;;;;13.40;99.90;;;;;;5021270;28;19913;-62
2022/09/16 12:34:48;;;;;;;;;;;13.20;99.90;;;;;;5016511;28;20160;-62
2022/09/16 12:37:14;;;;;;;;;;;13.50;99.90;;;;;;5024458;28;19913;-62
2022/09/16 12:39:39;;;;;;;;;;;14.00;99.90;;;;;;5020488;28;19955;-62
2022/09/16 12:42:11;;;;;;;;;;;13.90;99.90;;;;;;5034643;28;20380;-62
2022/09/16 12:44:37;;;;;;;;;;;13.80;99.90;;;;;;5022742;28;20059;-62
2022/09/16 12:47:20;;;;;;;;;;;13.60;99.90;;;;;;5018315;28;20004;-62
2022/09/16 12:49:45;;;;;;;;;;;13.30;99.90;;;;;;5019152;28;19913;-62
2022/09/16 12:52:29;;;;;;;;;;;13.10;99.90;;;;;;5017520;28;20238;-62
2022/09/16 12:55:12;;;;;;;;;;;13.00;99.90;;;;;;5019123;28;19923;-62
2022/09/16 12:57:37;;;;;;;;;;;12.40;99.90;;;;;;5021610;28;20367;-63
2022/09/16 13:00:22;;;;;;;;;;;11.90;99.90;;;;;;5021788;28;20161;-62
2022/09/16 13:02:52;;;;;;;;;;;11.80;99.90;;;;;;5021252;28;19913;-63
2022/09/16 13:05:21;;;;;;;;;;;11.70;99.90;;;;;;5020406;28;19920;-63
2022/09/16 13:07:52;;;;;;;;;;;11.80;99.90;;;;;;5022062;28;20369;-63
2022/09/16 13:10:21;;;;;;;;;;;11.70;99.90;;;;;;5021189;28;19912;-63
2022/09/16 13:12:50;;;;;;;;;;;11.90;99.90;;;;;;5018798;28;19909;-63
2022/09/16 13:15:24;;;;;;;;;;;12.00;99.90;;;;;;5021712;28;19939;-64
2022/09/16 13:17:51;;;;;;;;;;;12.10;99.90;;;;;;5022753;28;19913;-64
2022/09/16 13:20:20;;;;;;;;;;;12.30;99.90;;;;;;5021887;28;20319;-64
2022/09/16 13:22:54;;;;;;;;;;;12.40;99.90;;;;;;5017566;28;20416;-64
2022/09/16 13:25:39;;;;;;;;;;;12.50;99.90;;;;;;5021047;28;19982;-64
2022/09/16 13:28:24;;;;;;;;;;;12.70;99.90;;;;;;5018746;28;19916;-64
2022/09/16 13:30:49;;;;;;;;;;;12.70;99.90;;;;;;5021446;28;19952;-63
2022/09/16 13:33:19;;;;;;;;;;;12.70;99.90;;;;;;5016986;28;20348;-64
2022/09/16 13:35:48;;;;;;;;;;;12.80;99.90;;;;;;5022751;28;19925;-64
2022/09/16 13:38:13;;;;;;;;;;;12.80;99.90;;;;;;5023381;28;20003;-64
2022/09/16 13:40:39;;;;;;;;;;;12.80;99.90;;;;;;5023008;28;20348;-64
2022/09/16 13:43:08;;;;;;;;;;;12.90;99.90;;;;;;5022971;28;19963;-64
2022/09/16 13:45:38;;;;;;;;;;;12.60;99.90;;;;;;5019916;28;19924;-64
2022/09/16 13:48:15;;;;;;;;;;;12.50;99.90;;;;;;5018732;28;19920;-63
2022/09/16 13:50:48;;;;;;;;;;;12.40;99.90;;;;;;5028330;28;20028;-63
2022/09/16 13:53:19;;;;;;;;;;;12.30;99.90;;;;;;5026742;28;19921;-63
2022/09/16 13:55:46;;;;;;;;;;;12.20;99.90;;;;;;5022326;28;20463;-64
2022/09/16 13:58:20;;;;;;;;;;;12.10;99.90;;;;;;5023315;28;19910;-63
2022/09/16 14:01:01;;;;;;;;;;;12.10;99.90;;;;;;5025360;28;19966;-63
2022/09/16 14:03:38;;;;;;;;;;;12.10;99.90;;;;;;5022771;28;19984;-64
2022/09/16 14:06:03;;;;;;;;;;;12.00;99.90;;;;;;5026173;28;19916;-64
2022/09/16 14:08:30;;;;;;;;;;;12.10;99.90;;;;;;5022290;28;19924;-64
2022/09/16 14:11:14;;;;;;;;;;;12.10;99.90;;;;;;5019972;28;19909;-64
2022/09/16 14:13:41;;;;;;;;;;;12.10;99.90;;;;;;5023241;28;20276;-64
2022/09/16 14:16:16;;;;;;;;;;;12.10;99.90;;;;;;5026169;28;19925;-64
2022/09/16 14:18:44;;;;;;;;;;;12.10;99.90;;;;;;5026233;28;20327;-64
2022/09/16 14:21:17;;;;;;;;;;;12.10;99.90;;;;;;5023119;28;19958;-64